createdAt,value
2023-05-21T00:32:14.008Z,74.24
2023-05-21T00:34:31.718Z,74.38
2023-05-21T00:45:31.051Z,74.47
2023-05-21T02:47:49.759Z,78.67
2023-05-21T03:21:30.681Z,79.02
2023-05-21T04:23:08.213Z,78.80
2023-05-21T05:10:38.287Z,80.26
2023-05-21T05:13:19.440Z,80.29
2023-05-21T05:15:47.554Z,79.67
2023-05-21T05:46:48.028Z,82.17
2023-05-21T07:29:11.910Z,79.45
2023-05-21T13:13:24.064Z,50.03
2023-05-21T13:15:50.454Z,50.76
2023-05-21T13:18:16.899Z,51.87
2023-05-21T13:20:43.378Z,49.70
2023-05-21T13:23:11.455Z,47.76
2023-05-21T13:25:38.284Z,48.08
2023-05-21T13:28:04.650Z,47.53
2023-05-21T13:30:31.001Z,45.43
2023-05-21T13:32:57.440Z,47.01
2023-05-21T13:35:23.856Z,47.79
2023-05-21T13:37:50.214Z,48.49
2023-05-21T13:40:16.716Z,48.00
2023-05-21T13:42:43.209Z,48.36
2023-05-21T13:45:09.552Z,46.49
2023-05-21T13:47:37.581Z,45.93
2023-05-21T13:50:06.406Z,49.13
2023-05-21T13:52:32.792Z,48.49
2023-05-21T13:54:59.131Z,49.70
2023-05-21T13:57:25.503Z,49.37
2023-05-21T13:59:51.843Z,48.89
2023-05-21T14:02:18.295Z,49.51
2023-05-21T14:04:44.709Z,47.27
2023-05-21T14:07:11.048Z,48.04
2023-05-21T14:09:37.396Z,45.85
2023-05-21T14:12:05.606Z,45.49
2023-05-21T14:14:32.656Z,43.08
2023-05-21T14:16:59.195Z,43.90
2023-05-21T14:19:25.908Z,44.78
2023-05-21T14:21:52.323Z,44.42
2023-05-21T14:24:18.670Z,44.29
2023-05-21T14:26:45.043Z,45.08
2023-05-21T14:29:11.391Z,44.63
2023-05-21T14:31:38.147Z,45.81
2023-05-21T14:34:04.574Z,46.26
2023-05-21T14:36:30.919Z,46.83
2023-05-21T14:38:57.425Z,44.58
2023-05-21T14:41:23.877Z,44.26
2023-05-21T14:43:50.227Z,41.45
2023-05-21T14:46:16.627Z,41.58
2023-05-21T14:48:43.109Z,40.45
2023-05-21T14:51:09.464Z,40.36
2023-05-21T14:53:35.806Z,39.82
2023-05-21T14:56:02.167Z,40.69
2023-05-21T14:58:28.529Z,38.62
2023-05-21T15:00:54.884Z,38.28
2023-05-21T15:03:21.374Z,37.69
2023-05-21T15:05:47.916Z,37.63
2023-05-21T15:08:14.270Z,38.59
2023-05-21T15:10:40.629Z,40.28
2023-05-21T15:13:06.964Z,40.58
2023-05-21T15:15:33.336Z,40.99
2023-05-21T15:17:59.732Z,41.98
2023-05-21T15:20:26.096Z,42.40
2023-05-21T15:22:56.874Z,43.17
2023-05-21T15:25:31.397Z,42.10
2023-05-21T15:27:57.745Z,43.63
2023-05-21T15:30:24.081Z,43.72
2023-05-21T15:32:50.436Z,42.80
2023-05-21T15:35:16.897Z,42.14
2023-05-21T15:37:43.337Z,43.63
2023-05-21T15:40:09.717Z,42.71
2023-05-21T15:42:36.050Z,43.44
2023-05-21T15:45:02.419Z,42.87
2023-05-21T15:47:28.858Z,43.81
2023-05-21T15:49:55.228Z,42.99
2023-05-21T15:52:21.568Z,42.68
2023-05-21T15:54:47.934Z,43.55
2023-05-21T15:57:14.266Z,42.20
2023-05-21T15:59:40.592Z,43.70
2023-05-21T16:02:06.944Z,43.62
2023-05-21T16:04:33.277Z,42.88
2023-05-21T16:06:59.628Z,43.13
2023-05-21T16:09:25.992Z,43.53
2023-05-21T16:11:52.349Z,43.40
2023-05-21T16:14:18.675Z,43.82
2023-05-21T16:16:45.074Z,44.77
2023-05-21T16:19:11.493Z,47.14
2023-05-21T16:21:37.861Z,48.34
2023-05-21T16:24:04.235Z,45.82
2023-05-21T16:26:30.609Z,47.74
2023-05-21T16:28:56.951Z,49.70
2023-05-21T16:31:23.381Z,45.41
2023-05-21T16:33:49.729Z,45.81
2023-05-21T16:36:17.933Z,47.20
2023-05-21T16:38:44.413Z,49.18
2023-05-21T16:41:10.769Z,45.83
2023-05-21T16:43:37.116Z,49.52
2023-05-21T16:46:03.521Z,47.75
2023-05-21T16:48:29.875Z,49.95
2023-05-21T16:50:56.221Z,46.53
2023-05-21T16:53:22.596Z,49.75
2023-05-21T16:55:48.972Z,46.80
2023-05-21T16:58:15.301Z,47.14
2023-05-21T17:00:41.697Z,47.18
2023-05-21T17:03:08.099Z,48.42
2023-05-21T17:05:34.741Z,50.49
2023-05-21T17:08:01.293Z,50.01
2023-05-21T17:10:27.631Z,46.79
2023-05-21T17:12:53.992Z,50.94
2023-05-21T17:15:20.372Z,50.12
2023-05-21T17:17:46.784Z,46.98
2023-05-21T17:20:13.160Z,49.45
2023-05-21T17:22:39.565Z,49.98
2023-05-21T17:25:05.932Z,48.42
2023-05-21T17:27:32.267Z,48.44
2023-05-21T17:29:58.622Z,47.00
2023-05-21T17:32:24.956Z,48.08
2023-05-21T17:34:51.363Z,47.73
2023-05-21T17:37:17.842Z,48.67
2023-05-21T17:39:44.179Z,50.88
2023-05-21T17:42:10.520Z,50.57
2023-05-21T17:44:36.902Z,48.85
2023-05-21T17:47:03.335Z,50.20
2023-05-21T17:49:29.781Z,50.34
2023-05-21T17:51:56.139Z,51.54
2023-05-21T17:54:22.495Z,50.68
2023-05-21T17:56:48.843Z,50.34
2023-05-21T17:59:15.207Z,49.75
2023-05-21T18:01:41.546Z,51.35
2023-05-21T18:04:07.950Z,51.16
2023-05-21T18:06:34.340Z,49.79
2023-05-21T18:09:00.708Z,50.62
2023-05-21T18:11:27.063Z,49.10
2023-05-21T18:13:53.436Z,51.24
2023-05-21T18:16:19.799Z,50.01
2023-05-21T18:18:46.184Z,50.46
2023-05-21T18:21:12.585Z,51.75
2023-05-21T18:23:38.931Z,50.83
2023-05-21T18:26:05.273Z,48.41
2023-05-21T18:28:31.633Z,50.49
2023-05-21T18:30:57.981Z,50.51
2023-05-21T18:33:24.315Z,49.74
2023-05-21T18:35:50.697Z,50.81
2023-05-21T18:38:17.047Z,51.46
2023-05-21T18:40:43.402Z,51.94
2023-05-21T18:43:09.842Z,50.81
2023-05-21T18:45:36.206Z,52.16
2023-05-21T18:48:02.588Z,51.95
2023-05-21T18:50:29.041Z,52.76
2023-05-21T18:52:55.380Z,52.92
2023-05-21T18:55:21.730Z,52.02
2023-05-21T18:57:48.098Z,52.10
2023-05-21T19:00:14.464Z,54.64
2023-05-21T19:02:40.918Z,55.57
2023-05-21T19:05:07.421Z,59.28
2023-05-21T19:07:33.830Z,58.19
2023-05-21T19:10:00.391Z,60.97
2023-05-21T19:12:26.812Z,62.79
2023-05-21T19:14:53.135Z,60.26
2023-05-21T19:17:19.495Z,58.17
2023-05-21T19:19:45.882Z,56.52
2023-05-21T19:22:12.222Z,56.48
2023-05-21T19:24:38.561Z,58.68
2023-05-21T19:27:04.901Z,57.71
2023-05-21T19:29:31.245Z,62.37
2023-05-21T19:31:57.582Z,69.65
2023-05-21T19:34:24.123Z,80.97
2023-05-21T19:36:53.739Z,79.88
2023-05-21T19:39:20.486Z,78.26
2023-05-21T19:41:46.863Z,79.04
2023-05-21T19:44:13.221Z,79.58
2023-05-21T19:46:39.572Z,77.33
2023-05-21T19:49:05.958Z,77.76
2023-05-21T19:51:32.324Z,75.94
2023-05-21T19:53:58.662Z,76.79
2023-05-21T19:56:25.013Z,74.65
2023-05-21T19:58:51.360Z,75.51
2023-05-21T20:01:17.750Z,73.29
2023-05-21T20:03:44.197Z,73.42
2023-05-21T20:06:10.533Z,72.13
2023-05-21T20:08:36.861Z,72.69
2023-05-21T20:11:03.219Z,73.35
2023-05-21T20:13:29.575Z,72.12
2023-05-21T20:15:55.911Z,70.54
2023-05-21T20:18:22.556Z,70.92
2023-05-21T20:20:48.914Z,69.37
2023-05-21T20:23:15.255Z,69.97
2023-05-21T20:25:41.616Z,72.87
2023-05-21T20:28:07.966Z,72.82
2023-05-21T20:30:34.330Z,73.00
2023-05-21T20:33:00.771Z,68.35
2023-05-21T20:35:27.154Z,70.13
2023-05-21T20:37:53.498Z,73.31
2023-05-21T20:40:19.873Z,75.71
2023-05-21T20:42:46.241Z,75.57
2023-05-21T20:45:12.589Z,73.41
2023-05-21T20:47:38.989Z,74.32
2023-05-21T20:50:05.385Z,74.86
2023-05-21T20:52:31.732Z,73.81
2023-05-21T20:54:58.123Z,72.35
2023-05-21T20:57:24.478Z,72.29
2023-05-21T20:59:50.814Z,70.63
2023-05-21T21:02:17.175Z,69.89
2023-05-21T21:04:43.517Z,69.96
2023-05-21T21:07:09.866Z,73.42
2023-05-21T21:09:36.220Z,72.78
2023-05-21T21:12:11.355Z,71.18
2023-05-21T21:14:48.501Z,68.16
2023-05-21T21:17:14.900Z,70.26
2023-05-21T21:19:41.247Z,71.33
2023-05-21T21:22:07.620Z,72.54
2023-05-21T21:24:33.967Z,71.71
2023-05-21T21:27:00.294Z,72.85
2023-05-21T21:29:26.725Z,72.81
2023-05-21T21:31:53.042Z,72.32
2023-05-21T21:34:19.364Z,72.17
2023-05-21T21:36:45.719Z,74.22
2023-05-21T21:39:12.048Z,75.95
2023-05-21T21:41:38.383Z,74.52
2023-05-21T21:44:04.799Z,73.69
2023-05-21T21:46:31.172Z,75.30
2023-05-21T21:48:57.549Z,74.66
2023-05-21T21:51:23.929Z,75.52
2023-05-21T21:53:50.279Z,75.17
2023-05-21T21:56:16.623Z,76.08
2023-05-21T21:58:43.307Z,76.77
2023-05-21T22:01:09.685Z,75.71
2023-05-21T22:03:36.068Z,75.50
2023-05-21T22:06:02.447Z,74.96
2023-05-21T22:08:28.803Z,74.63
2023-05-21T22:10:55.152Z,74.80
2023-05-21T22:13:21.525Z,74.26
2023-05-21T22:15:47.865Z,74.49
2023-05-21T22:18:15.682Z,75.76
2023-05-21T22:20:44.887Z,75.61
2023-05-21T22:23:11.236Z,75.97
2023-05-21T22:25:37.565Z,76.24
2023-05-21T22:28:03.948Z,75.64
2023-05-21T22:30:30.308Z,76.75
2023-05-21T22:32:56.695Z,75.56
2023-05-21T22:35:23.101Z,76.46
2023-05-21T22:37:49.442Z,76.36
2023-05-21T22:40:15.804Z,76.35
2023-05-21T22:42:42.156Z,76.27
2023-05-21T22:45:08.501Z,74.92
2023-05-21T22:47:34.836Z,74.70
2023-05-21T22:50:01.224Z,75.31
2023-05-21T22:52:27.603Z,73.73
2023-05-21T22:54:53.984Z,73.40
2023-05-21T22:57:20.386Z,76.90
2023-05-21T22:59:46.749Z,76.20
2023-05-21T23:02:13.233Z,76.47
2023-05-21T23:04:44.385Z,76.53
2023-05-21T23:07:11.105Z,76.51
2023-05-21T23:09:37.451Z,76.68
2023-05-21T23:12:03.834Z,77.50
2023-05-21T23:14:30.168Z,77.15
2023-05-21T23:16:56.498Z,76.49
2023-05-21T23:19:22.964Z,77.25
2023-05-21T23:21:49.419Z,76.40
2023-05-21T23:24:15.760Z,76.25
2023-05-21T23:26:42.127Z,75.07
2023-05-21T23:29:08.460Z,73.56
2023-05-21T23:31:34.835Z,74.30
2023-05-21T23:34:01.195Z,73.04
2023-05-21T23:36:27.536Z,73.76
2023-05-21T23:38:53.881Z,72.78
2023-05-21T23:41:20.236Z,74.84
2023-05-21T23:43:46.590Z,74.82
2023-05-21T23:46:12.947Z,75.25
2023-05-21T23:48:39.371Z,75.49
2023-05-21T23:51:05.721Z,75.92
2023-05-21T23:53:32.052Z,75.76
2023-05-21T23:55:58.397Z,75.75
2023-05-21T23:58:24.734Z,75.46
